Time;durP1;ratioP1;P1;durP2;ratioP2;P2;SDS_P1;SDS_P2;PMS_P1;PMS_P2;Temp;Humidity;BMP_temperature;BMP_pressure;BME280_temperature;BME280_humidity;BME280_pressure;Samples;Min_cycle;Max_cycle;Signal;HPM_P1;HPM_P2
2022/02/13 00:00:37;;;;;;;;;31.40;29.60;;;;;8.22;46.84;101488.81;2072277;28;48469;-55
2022/02/13 00:01:38;;;;;;;;;29.00;27.00;;;;;8.22;47.10;101488.81;2072334;28;48418;-53
2022/02/13 00:02:40;;;;;;;;;26.75;26.50;;;;;8.18;47.27;101489.69;2072598;28;47559;-51
2022/02/13 00:03:40;;;;;;;;;27.40;26.20;;;;;8.16;47.01;101494.09;2072202;28;47648;-54
2022/02/13 00:04:41;;;;;;;;;24.00;23.50;;;;;8.15;47.02;101492.34;2072337;28;47891;-53
2022/02/13 00:05:41;;;;;;;;;28.50;22.25;;;;;8.14;47.35;101490.59;2072441;28;47709;-53
2022/02/13 00:06:42;;;;;;;;;24.75;24.00;;;;;8.14;47.45;101487.94;2072304;28;47726;-55
2022/02/13 00:07:42;;;;;;;;;32.00;26.75;;;;;8.12;47.04;101485.25;2072185;28;48227;-54
2022/02/13 00:08:43;;;;;;;;;24.50;24.25;;;;;8.12;47.28;101485.25;2072482;28;47522;-54
2022/02/13 00:09:43;;;;;;;;;25.25;22.50;;;;;8.10;47.39;101484.38;2072071;28;47411;-54
2022/02/13 00:10:44;;;;;;;;;21.25;21.25;;;;;8.09;47.34;101481.75;2072453;28;48056;-56
2022/02/13 00:11:44;;;;;;;;;31.25;30.75;;;;;8.07;47.33;101479.09;2071942;28;47404;-55
2022/02/13 00:12:44;;;;;;;;;25.75;24.50;;;;;8.06;47.21;101474.69;2071666;28;47482;-54
2022/02/13 00:13:46;;;;;;;;;23.00;20.75;;;;;8.06;47.38;101473.81;2072087;28;47457;-54
2022/02/13 00:14:47;;;;;;;;;29.80;27.80;;;;;8.04;47.44;101472.94;2072065;28;47321;-55
2022/02/13 00:15:47;;;;;;;;;32.50;28.00;;;;;8.03;47.54;101463.25;2072568;28;47620;-53
2022/02/13 00:16:47;;;;;;;;;26.50;25.25;;;;;8.02;47.60;101465.00;2072297;28;47412;-54
2022/02/13 00:17:48;;;;;;;;;28.50;25.75;;;;;8.01;47.33;101454.44;2072178;28;48116;-54
2022/02/13 00:18:48;;;;;;;;;23.50;23.50;;;;;8.01;47.24;101450.03;2072471;28;47617;-54
2022/02/13 00:19:50;;;;;;;;;28.50;26.25;;;;;8.02;47.24;101448.28;2072297;28;47701;-54
2022/02/13 00:20:50;;;;;;;;;25.40;24.00;;;;;8.01;47.23;101443.88;2072076;28;47618;-53
2022/02/13 00:21:51;;;;;;;;;25.75;24.75;;;;;8.01;47.80;101439.47;2072229;28;47383;-55
2022/02/13 00:22:52;;;;;;;;;25.60;25.60;;;;;8.01;47.57;101443.88;2071824;28;47439;-52
2022/02/13 00:23:52;;;;;;;;;25.25;24.00;;;;;8.00;47.34;101439.44;2072390;28;47465;-55
2022/02/13 00:24:53;;;;;;;;;20.75;20.75;;;;;8.00;47.52;101442.97;2071873;28;48037;-54
2022/02/13 00:25:53;;;;;;;;;27.50;21.75;;;;;8.01;47.46;101438.59;2070154;28;47641;-56
2022/02/13 00:26:54;;;;;;;;;26.00;25.00;;;;;8.01;47.35;101438.59;2066821;28;47873;-54
2022/02/13 00:27:55;;;;;;;;;19.75;19.25;;;;;8.00;47.26;101435.03;2069775;28;47154;-53
2022/02/13 00:28:55;;;;;;;;;20.20;19.40;;;;;8.01;47.46;101435.94;2072224;28;47893;-54
2022/02/13 00:29:56;;;;;;;;;28.75;28.75;;;;;8.00;47.54;101432.38;2072009;28;47544;-56
2022/02/13 00:30:56;;;;;;;;;28.00;26.00;;;;;8.00;47.54;101427.09;2071881;28;47801;-54
2022/02/13 00:31:56;;;;;;;;;29.00;26.25;;;;;8.00;47.59;101439.44;2071913;28;47792;-53
2022/02/13 00:32:57;;;;;;;;;21.50;19.50;;;;;7.98;47.45;101413.00;2072111;28;47656;-54
2022/02/13 00:33:58;;;;;;;;;27.60;27.60;;;;;7.97;47.45;101422.69;2072390;28;47555;-55
2022/02/13 00:34:58;;;;;;;;;27.50;26.50;;;;;7.97;47.64;101417.41;2071786;28;47403;-55
2022/02/13 00:36:00;;;;;;;;;26.80;26.80;;;;;7.98;47.75;101421.81;2071338;28;47232;-56
2022/02/13 00:37:00;;;;;;;;;28.75;25.75;;;;;7.96;47.66;101418.31;2072345;28;47686;-55
2022/02/13 00:38:01;;;;;;;;;27.75;26.50;;;;;7.96;47.71;101420.94;2072053;28;47734;-53
2022/02/13 00:39:02;;;;;;;;;26.75;26.50;;;;;7.96;47.33;101412.13;2072081;28;47236;-55
2022/02/13 00:40:03;;;;;;;;;26.75;24.50;;;;;7.94;47.42;101414.78;2072114;28;47837;-53
2022/02/13 00:41:03;;;;;;;;;26.50;25.50;;;;;7.92;47.69;101411.25;2054396;28;48027;-55
2022/02/13 00:42:04;;;;;;;;;21.50;21.50;;;;;7.93;47.46;101409.50;2054193;28;47567;-54
2022/02/13 00:43:05;;;;;;;;;25.80;24.20;;;;;7.92;47.54;101405.97;2062776;28;47947;-54
2022/02/13 00:44:06;;;;;;;;;28.00;26.25;;;;;7.91;47.53;101406.84;2062425;28;47648;-52
2022/02/13 00:45:07;;;;;;;;;33.25;30.00;;;;;7.92;47.70;101405.09;2072322;28;47454;-54
2022/02/13 00:46:07;;;;;;;;;25.00;24.00;;;;;7.91;47.67;101398.94;2071363;28;47677;-54
2022/02/13 00:47:08;;;;;;;;;26.25;22.50;;;;;7.90;47.56;101393.66;2071926;28;47627;-52
2022/02/13 00:48:10;;;;;;;;;26.20;25.60;;;;;7.89;47.76;101399.81;2072678;28;45968;-53
2022/02/13 00:49:10;;;;;;;;;27.20;26.60;;;;;7.87;47.45;101401.56;2072440;28;47427;-55
2022/02/13 00:50:11;;;;;;;;;25.75;24.75;;;;;7.83;47.45;101390.09;2071751;28;47882;-55
2022/02/13 00:51:11;;;;;;;;;28.75;27.25;;;;;7.83;47.78;101384.81;2072141;28;48100;-52
2022/02/13 00:52:12;;;;;;;;;26.00;22.50;;;;;7.82;47.61;101393.63;2072080;28;47678;-52
2022/02/13 00:53:12;;;;;;;;;28.50;26.00;;;;;7.82;47.72;101391.00;2072097;28;47402;-50
2022/02/13 00:54:13;;;;;;;;;27.00;27.00;;;;;7.83;48.28;101394.50;2071474;28;48070;-54
2022/02/13 00:55:13;;;;;;;;;30.50;25.50;;;;;7.83;47.67;101390.09;2070582;28;47602;-54
2022/02/13 00:56:14;;;;;;;;;29.50;27.25;;;;;7.82;47.74;101388.34;2062603;28;47473;-56
2022/02/13 00:57:14;;;;;;;;;27.00;27.00;;;;;7.82;47.90;101385.72;2062773;28;47483;-54
2022/02/13 00:58:15;;;;;;;;;31.75;30.50;;;;;7.83;47.73;101391.88;2070988;28;47931;-55
2022/02/13 00:59:15;;;;;;;;;27.00;26.00;;;;;7.82;47.74;101388.34;2071266;28;48100;-52
2022/02/13 01:00:16;;;;;;;;;28.50;27.25;;;;;7.83;47.78;101386.59;2070638;28;47888;-53
2022/02/13 01:01:16;;;;;;;;;28.25;28.25;;;;;7.83;47.99;101381.31;2071399;28;47511;-53
2022/02/13 01:02:17;;;;;;;;;29.75;27.25;;;;;7.84;47.81;101383.94;2071014;28;47202;-56
2022/02/13 01:03:17;;;;;;;;;27.25;26.25;;;;;7.84;47.87;101386.59;2063248;28;47640;-53
2022/02/13 01:04:18;;;;;;;;;27.50;27.50;;;;;7.85;47.58;101382.19;2062511;28;48270;-54
2022/02/13 01:05:18;;;;;;;;;28.50;27.75;;;;;7.85;47.77;101383.06;2071033;28;47640;-53
2022/02/13 01:06:19;;;;;;;;;29.00;26.00;;;;;7.85;47.65;101379.53;2070772;28;47817;-52
2022/02/13 01:07:19;;;;;;;;;30.50;29.25;;;;;7.85;47.78;101380.41;2071443;28;47872;-54
2022/02/13 01:08:20;;;;;;;;;27.75;27.50;;;;;7.86;47.92;101376.88;2071108;28;47700;-54
2022/02/13 01:09:20;;;;;;;;;27.25;26.00;;;;;7.86;47.75;101381.28;2054226;28;47740;-52
2022/02/13 01:10:21;;;;;;;;;29.50;24.50;;;;;7.85;47.72;101377.78;2054422;28;47332;-53
2022/02/13 01:11:21;;;;;;;;;25.00;24.50;;;;;7.86;47.55;101378.66;2070776;28;48174;-55
2022/02/13 01:12:22;;;;;;;;;30.00;27.00;;;;;7.86;47.60;101376.00;2070706;28;47523;-55
2022/02/13 01:13:22;;;;;;;;;24.75;24.75;;;;;7.87;47.85;101381.28;2070905;28;48170;-54
2022/02/13 01:14:23;;;;;;;;;25.50;24.50;;;;;7.88;47.75;101379.56;2070999;28;47278;-56
2022/02/13 01:15:24;;;;;;;;;22.50;20.50;;;;;7.87;47.72;101375.13;2071234;28;47773;-55
2022/02/13 01:16:26;;;;;;;;;28.60;27.60;;;;;7.89;47.56;101378.69;2071103;28;48018;-56
2022/02/13 01:17:27;;;;;;;;;27.00;26.00;;;;;7.89;47.88;101374.28;2062542;28;48148;-58
2022/02/13 01:18:28;;;;;;;;;30.00;29.50;;;;;7.89;47.85;101373.41;2063379;28;47608;-51
2022/02/13 01:19:29;;;;;;;;;31.00;28.50;;;;;7.88;47.59;101374.28;2070391;28;47544;-55
2022/02/13 01:20:29;;;;;;;;;28.50;27.00;;;;;7.87;47.77;101373.34;2070682;28;47587;-55
2022/02/13 01:21:30;;;;;;;;;31.50;28.00;;;;;7.87;47.91;101369.84;2062612;28;47962;-54
2022/02/13 01:22:31;;;;;;;;;31.50;29.00;;;;;7.85;48.02;101368.97;2062708;28;47569;-53
2022/02/13 01:23:31;;;;;;;;;30.50;28.00;;;;;7.83;47.61;101374.25;2070791;28;47641;-57
2022/02/13 01:24:32;;;;;;;;;26.00;23.75;;;;;7.83;47.73;101360.16;2071042;28;47785;-53
2022/02/13 01:25:32;;;;;;;;;24.25;24.25;;;;;7.83;47.68;101361.03;2070074;28;47736;-53
2022/02/13 01:26:32;;;;;;;;;26.25;26.25;;;;;7.83;47.77;101360.16;2069321;28;47498;-54
2022/02/13 01:27:33;;;;;;;;;28.75;27.25;;;;;7.83;47.99;101362.81;2071957;28;47308;-52
2022/02/13 01:28:34;;;;;;;;;26.75;24.50;;;;;7.81;47.97;101362.81;2071558;28;47044;-55
2022/02/13 01:29:34;;;;;;;;;26.75;26.25;;;;;7.81;48.01;101360.16;2071128;28;47982;-53
2022/02/13 01:30:35;;;;;;;;;33.75;27.00;;;;;7.81;48.05;101360.16;2071590;28;47486;-54
2022/02/13 01:31:36;;;;;;;;;28.50;27.25;;;;;7.79;47.91;101351.38;2071579;28;47838;-53
2022/02/13 01:32:36;;;;;;;;;27.00;23.25;;;;;7.80;47.91;101354.88;2072005;28;47294;-55
2022/02/13 01:33:37;;;;;;;;;31.25;29.00;;;;;7.80;47.97;101354.88;2071669;28;47715;-54
2022/02/13 01:34:37;;;;;;;;;28.75;27.75;;;;;7.80;47.82;101358.41;2071887;28;47310;-54
2022/02/13 01:35:38;;;;;;;;;31.50;25.75;;;;;7.80;47.91;101350.47;2071740;28;47263;-54
2022/02/13 01:36:38;;;;;;;;;30.75;30.75;;;;;7.79;47.89;101355.78;2071985;28;47618;-53
2022/02/13 01:37:39;;;;;;;;;29.25;27.75;;;;;7.75;48.04;101353.97;2071704;28;48067;-54
2022/02/13 01:38:39;;;;;;;;;28.00;27.50;;;;;7.73;47.89;101361.91;2071789;28;47232;-53
2022/02/13 01:39:40;;;;;;;;;27.00;26.25;;;;;7.72;47.90;101356.63;2071513;28;47446;-54
2022/02/13 01:40:40;;;;;;;;;30.75;29.75;;;;;7.72;48.05;101356.63;2061829;28;47850;-54
2022/02/13 01:41:41;;;;;;;;;28.75;25.75;;;;;7.72;48.16;101360.16;2062036;28;47552;-56
2022/02/13 01:42:42;;;;;;;;;29.25;28.50;;;;;7.72;48.16;101354.00;2071479;28;47730;-54
2022/02/13 01:43:42;;;;;;;;;28.75;26.25;;;;;7.74;47.76;101349.59;2071656;28;47970;-53
2022/02/13 01:44:43;;;;;;;;;27.75;27.25;;;;;7.72;48.01;101346.94;2071386;28;47574;-51
2022/02/13 01:45:43;;;;;;;;;25.75;21.75;;;;;7.73;47.79;101354.00;2071362;28;47198;-55
2022/02/13 01:46:43;;;;;;;;;25.00;25.00;;;;;7.72;47.98;101352.22;2071357;28;47859;-53
2022/02/13 01:47:44;;;;;;;;;26.75;26.00;;;;;7.74;48.03;101355.75;2071650;28;47823;-51
2022/02/13 01:48:44;;;;;;;;;24.50;22.75;;;;;7.72;48.21;101346.94;2071411;28;47558;-52
2022/02/13 01:49:45;;;;;;;;;25.25;24.50;;;;;7.72;47.88;101351.34;2070937;28;47573;-53
2022/02/13 01:50:49;;;;;;;;;26.75;24.25;;;;;7.70;47.90;101346.06;2070817;28;47359;-54
2022/02/13 01:51:50;;;;;;;;;24.60;22.40;;;;;7.69;47.94;101354.88;2071830;28;47346;-49
2022/02/13 01:52:51;;;;;;;;;22.60;21.20;;;;;7.68;47.83;101351.34;2071338;28;48493;-54
2022/02/13 01:53:52;;;;;;;;;28.40;21.60;;;;;7.69;47.92;101354.88;2071628;28;47577;-52
2022/02/13 01:54:53;;;;;;;;;25.00;23.25;;;;;7.70;47.90;101354.00;2071212;28;47416;-53
2022/02/13 01:55:53;;;;;;;;;24.50;23.00;;;;;7.71;47.83;101349.59;2071999;28;47668;-52
2022/02/13 01:56:54;;;;;;;;;21.00;20.25;;;;;7.72;47.85;101357.50;2070820;28;48030;-56
2022/02/13 01:57:57;;;;;;;;;23.75;23.25;;;;;7.72;47.92;101354.88;2070649;28;47984;-53
2022/02/13 01:58:57;;;;;;;;;24.20;24.00;;;;;7.74;47.58;101354.88;2071587;28;47566;-52
2022/02/13 01:59:58;;;;;;;;;24.25;22.00;;;;;7.73;47.89;101353.09;2071407;28;47416;-51
2022/02/13 02:00:58;;;;;;;;;26.60;25.80;;;;;7.73;47.79;101346.06;2071342;28;46187;-53
2022/02/13 02:01:59;;;;;;;;;31.00;28.50;;;;;7.74;47.65;101350.47;2071553;28;48072;-53
2022/02/13 02:02:59;;;;;;;;;27.25;25.75;;;;;7.75;47.59;101346.06;2071286;28;47542;-51
2022/02/13 02:04:00;;;;;;;;;26.75;25.00;;;;;7.73;47.88;101351.34;2071589;28;47582;-53
2022/02/13 02:05:02;;;;;;;;;24.75;23.00;;;;;7.71;47.62;101341.66;2071813;28;46583;-54
2022/02/13 02:06:02;;;;;;;;;26.40;25.20;;;;;7.71;48.08;101350.47;2070847;28;47401;-53
2022/02/13 02:07:03;;;;;;;;;24.00;23.25;;;;;7.71;47.83;101339.91;2071111;28;47257;-53
2022/02/13 02:08:04;;;;;;;;;25.00;22.80;;;;;7.72;47.86;101340.78;2078940;28;47864;-54
2022/02/13 02:09:05;;;;;;;;;32.00;29.00;;;;;7.71;47.70;101337.25;2071149;28;47259;-52
2022/02/13 02:10:06;;;;;;;;;22.00;21.80;;;;;7.72;47.78;101333.75;2070997;28;47879;-53
2022/02/13 02:11:06;;;;;;;;;26.75;26.75;;;;;7.72;48.04;101335.50;2071360;28;47857;-55
2022/02/13 02:12:07;;;;;;;;;25.25;25.25;;;;;7.71;47.99;101333.75;2071445;28;47547;-56
2022/02/13 02:13:08;;;;;;;;;29.00;25.25;;;;;7.71;47.84;101331.09;2071461;28;47619;-51
2022/02/13 02:14:08;;;;;;;;;26.00;25.75;;;;;7.71;47.82;101331.97;2071485;28;48119;-54
2022/02/13 02:15:09;;;;;;;;;26.75;25.50;;;;;7.71;48.10;101325.81;2071530;28;47570;-53
2022/02/13 02:16:10;;;;;;;;;21.60;21.60;;;;;7.70;47.87;101321.41;2061785;28;47482;-53
2022/02/13 02:17:11;;;;;;;;;29.75;29.75;;;;;7.68;47.95;101324.94;2062603;28;47597;-54
2022/02/13 02:18:11;;;;;;;;;31.25;29.75;;;;;7.66;47.46;101316.13;2071406;28;47641;-54
2022/02/13 02:19:12;;;;;;;;;24.75;24.75;;;;;7.66;48.19;101320.53;2071591;28;47590;-53
2022/02/13 02:20:13;;;;;;;;;27.50;26.50;;;;;7.63;47.81;101310.88;2071214;28;47840;-53
2022/02/13 02:21:14;;;;;;;;;24.40;23.00;;;;;7.63;47.96;101316.16;2071604;28;48141;-51
2022/02/13 02:22:16;;;;;;;;;26.00;26.00;;;;;7.62;47.81;101306.47;2071412;28;48100;-54
2022/02/13 02:23:16;;;;;;;;;26.40;25.80;;;;;7.62;48.04;101308.19;2071745;28;47674;-56
2022/02/13 02:24:17;;;;;;;;;27.50;27.00;;;;;7.62;48.01;101303.81;2071148;28;47687;-52
2022/02/13 02:25:17;;;;;;;;;20.00;19.75;;;;;7.62;47.98;101300.28;2071635;28;47976;-53
2022/02/13 02:26:19;;;;;;;;;26.75;25.75;;;;;7.62;48.13;101295.00;2070910;28;47428;-53
2022/02/13 02:27:19;;;;;;;;;25.40;22.00;;;;;7.59;47.93;101293.22;2070004;28;47709;-54
2022/02/13 02:28:19;;;;;;;;;25.25;22.50;;;;;7.57;47.95;101292.38;2070574;28;47668;-53
2022/02/13 02:29:20;;;;;;;;;25.00;23.00;;;;;7.52;47.92;101291.50;2070856;28;47636;-56
2022/02/13 02:30:21;;;;;;;;;25.75;23.75;;;;;7.52;47.92;101294.13;2071167;28;47248;-55
2022/02/13 02:31:21;;;;;;;;;23.75;20.75;;;;;7.52;48.04;101285.34;2071390;28;47159;-53
2022/02/13 02:32:21;;;;;;;;;27.75;27.50;;;;;7.51;48.32;101295.03;2071050;28;47862;-55
2022/02/13 02:33:22;;;;;;;;;22.25;22.25;;;;;7.49;47.90;101280.91;2071346;28;47507;-54
2022/02/13 02:34:22;;;;;;;;;25.25;24.00;;;;;7.48;48.46;101275.63;2071428;28;47535;-51
2022/02/13 02:35:23;;;;;;;;;25.25;24.50;;;;;7.47;48.02;101280.03;2071327;28;47524;-55
2022/02/13 02:36:23;;;;;;;;;25.25;22.25;;;;;7.46;48.12;101266.84;2069577;28;47498;-54
2022/02/13 02:37:24;;;;;;;;;28.25;24.00;;;;;7.45;48.11;101267.72;2070146;28;47875;-53
2022/02/13 02:38:25;;;;;;;;;30.00;26.00;;;;;7.44;48.17;101261.56;2071531;28;47657;-55
2022/02/13 02:39:25;;;;;;;;;24.75;24.75;;;;;7.42;48.10;101265.09;2071295;28;47699;-53
2022/02/13 02:40:25;;;;;;;;;26.50;25.75;;;;;7.40;48.19;101257.16;2071379;28;47600;-54
2022/02/13 02:41:26;;;;;;;;;24.00;24.00;;;;;7.40;48.54;101249.25;2061814;28;46318;-52
2022/02/13 02:42:27;;;;;;;;;15.50;12.50;;;;;7.39;48.16;101250.13;2062234;28;47413;-54
2022/02/13 02:43:27;;;;;;;;;31.25;29.75;;;;;7.39;48.22;101247.47;2062348;28;47309;-51
2022/02/13 02:44:28;;;;;;;;;22.25;22.25;;;;;7.38;48.20;101243.97;2062360;28;47313;-55
2022/02/13 02:45:28;;;;;;;;;28.25;28.00;;;;;7.40;48.39;101253.66;2062093;28;47725;-54
2022/02/13 02:46:29;;;;;;;;;21.25;20.75;;;;;7.40;48.42;101243.97;2061936;28;48084;-54
2022/02/13 02:47:29;;;;;;;;;23.25;21.75;;;;;7.41;48.20;101248.34;2062222;28;47952;-54
2022/02/13 02:48:30;;;;;;;;;24.75;22.50;;;;;7.40;48.25;101249.25;2062520;28;47876;-53
2022/02/13 02:49:31;;;;;;;;;26.20;24.80;;;;;7.41;48.75;101243.06;2061957;28;47313;-51
2022/02/13 02:50:31;;;;;;;;;24.75;24.25;;;;;7.41;48.26;101251.00;2053514;28;47666;-54
2022/02/13 02:51:32;;;;;;;;;31.50;27.00;;;;;7.39;48.23;101242.19;2053745;28;47825;-54
2022/02/13 02:52:32;;;;;;;;;22.25;21.50;;;;;7.37;48.36;101244.84;2062583;28;47487;-53
2022/02/13 02:53:36;;;;;;;;;25.75;25.75;;;;;7.36;48.46;101237.78;2062233;28;47989;-54
2022/02/13 02:54:37;;;;;;;;;27.80;25.00;;;;;7.36;48.11;101242.19;2062092;28;47785;-54
2022/02/13 02:55:37;;;;;;;;;25.50;24.25;;;;;7.36;48.44;101244.81;2053593;28;47561;-53
2022/02/13 02:56:37;;;;;;;;;27.25;27.25;;;;;7.36;48.72;101244.81;2054003;28;47734;-52
2022/02/13 02:57:38;;;;;;;;;26.00;23.25;;;;;7.35;48.48;101251.88;2061758;28;48114;-53
2022/02/13 02:58:39;;;;;;;;;23.00;22.25;;;;;7.36;48.57;101247.47;2062153;28;47513;-53
2022/02/13 02:59:40;;;;;;;;;25.75;22.50;;;;;7.33;48.25;101251.00;2062123;28;47629;-53
2022/02/13 03:00:40;;;;;;;;;24.20;23.60;;;;;7.30;48.27;101243.06;2062426;28;47883;-52
2022/02/13 03:01:41;;;;;;;;;26.00;22.75;;;;;7.30;48.74;101252.75;2061772;28;48174;-55
2022/02/13 03:02:41;;;;;;;;;25.25;25.25;;;;;7.28;48.58;101246.59;2062297;28;47892;-54
2022/02/13 03:03:42;;;;;;;;;24.50;21.25;;;;;7.27;48.50;101244.84;2061877;28;48151;-55
2022/02/13 03:04:43;;;;;;;;;22.50;21.25;;;;;7.27;48.58;101242.19;2062284;28;47866;-54
2022/02/13 03:05:44;;;;;;;;;22.50;19.25;;;;;7.25;48.52;101244.84;2061936;28;47594;-52
2022/02/13 03:06:44;;;;;;;;;24.20;23.00;;;;;7.27;48.83;101248.38;2061959;28;47594;-54
2022/02/13 03:07:45;;;;;;;;;23.00;23.00;;;;;7.24;48.44;101243.09;2061854;28;47698;-54
2022/02/13 03:08:45;;;;;;;;;22.75;22.50;;;;;7.22;48.20;101247.47;2062602;28;47400;-52
2022/02/13 03:09:45;;;;;;;;;26.75;26.75;;;;;7.19;48.63;101250.09;2063390;28;47509;-54
2022/02/13 03:10:47;;;;;;;;;19.25;19.25;;;;;7.19;48.55;101246.59;2063589;28;47673;-52
2022/02/13 03:11:47;;;;;;;;;25.60;22.20;;;;;7.17;48.68;101243.06;2063708;28;47177;-51
2022/02/13 03:12:48;;;;;;;;;23.75;20.50;;;;;7.18;48.72;101253.63;2065192;28;47519;-55
2022/02/13 03:13:48;;;;;;;;;24.25;23.00;;;;;7.19;48.67;101246.59;2072656;28;47564;-52
2022/02/13 03:14:49;;;;;;;;;24.25;21.00;;;;;7.18;48.50;101240.44;2072658;28;48054;-54
2022/02/13 03:15:50;;;;;;;;;24.75;23.00;;;;;7.20;48.57;101240.44;2072646;28;47834;-53
2022/02/13 03:16:51;;;;;;;;;21.40;21.40;;;;;7.20;48.78;101240.44;2072606;28;47373;-53
2022/02/13 03:17:51;;;;;;;;;24.00;22.25;;;;;7.19;48.55;101234.28;2072475;28;47543;-54
2022/02/13 03:18:52;;;;;;;;;20.75;20.50;;;;;7.19;48.65;101242.19;2072847;28;47902;-52
2022/02/13 03:19:53;;;;;;;;;27.60;25.80;;;;;7.18;48.59;101245.72;2072301;28;47451;-53
2022/02/13 03:20:53;;;;;;;;;28.50;25.25;;;;;7.17;48.92;101233.41;2072380;28;47750;-54
2022/02/13 03:21:54;;;;;;;;;25.75;24.75;;;;;7.20;48.82;101240.44;2072276;28;47922;-51
2022/02/13 03:22:54;;;;;;;;;22.00;22.00;;;;;7.19;48.63;101236.03;2072493;28;47297;-54
2022/02/13 03:23:54;;;;;;;;;25.00;23.50;;;;;7.18;48.74;101229.88;2072383;28;47720;-53
2022/02/13 03:24:58;;;;;;;;;23.75;23.75;;;;;7.16;48.86;101226.34;2072334;28;47620;-53
2022/02/13 03:25:59;;;;;;;;;22.40;22.20;;;;;7.14;48.72;101222.84;2071972;28;48082;-52
2022/02/13 03:26:59;;;;;;;;;24.25;22.50;;;;;7.13;48.87;101214.94;2070718;28;47388;-55
2022/02/13 03:27:59;;;;;;;;;25.00;22.00;;;;;7.12;48.69;101218.44;2072581;28;47895;-53
2022/02/13 03:29:00;;;;;;;;;23.50;19.50;;;;;7.10;48.59;101213.13;2072248;28;47565;-55
2022/02/13 03:30:01;;;;;;;;;27.00;24.50;;;;;7.08;48.69;101214.91;2072680;28;48059;-55
2022/02/13 03:31:01;;;;;;;;;25.00;21.25;;;;;7.07;48.84;101207.88;2072294;28;47859;-53
2022/02/13 03:32:02;;;;;;;;;26.50;24.00;;;;;7.07;49.17;101205.22;2072258;28;47843;-54
2022/02/13 03:33:03;;;;;;;;;22.75;22.75;;;;;7.05;48.85;101204.34;2072449;28;47880;-54
2022/02/13 03:34:03;;;;;;;;;25.00;22.80;;;;;7.06;49.07;101206.13;2072364;28;47536;-54
2022/02/13 03:35:04;;;;;;;;;25.00;23.00;;;;;7.06;49.17;101209.63;2072311;28;47601;-51
2022/02/13 03:36:05;;;;;;;;;18.00;18.00;;;;;7.05;48.78;101199.97;2072062;28;46213;-53
2022/02/13 03:37:05;;;;;;;;;25.75;20.50;;;;;7.04;49.05;101205.25;2072286;28;47674;-52
2022/02/13 03:38:06;;;;;;;;;29.80;27.40;;;;;6.99;48.94;101199.09;2072627;28;48090;-52
2022/02/13 03:39:07;;;;;;;;;27.25;24.50;;;;;6.95;49.09;101200.81;2072127;28;47645;-52
2022/02/13 03:40:08;;;;;;;;;26.75;25.00;;;;;6.94;49.20;101200.81;2072458;28;47445;-53
2022/02/13 03:41:08;;;;;;;;;22.40;21.40;;;;;6.93;49.07;101202.59;2072150;28;47604;-54
2022/02/13 03:42:12;;;;;;;;;27.50;23.75;;;;;6.93;49.20;101202.59;2072414;28;47574;-54
2022/02/13 03:43:12;;;;;;;;;28.60;24.20;;;;;6.93;49.06;101206.97;2072598;28;47836;-52
2022/02/13 03:44:12;;;;;;;;;26.00;24.75;;;;;6.95;49.33;101199.94;2072486;28;47464;-54
2022/02/13 03:45:13;;;;;;;;;23.75;23.00;;;;;6.96;49.24;101210.50;2072122;28;47592;-53
2022/02/13 03:46:13;;;;;;;;;21.00;21.00;;;;;6.96;49.40;101201.69;2072388;28;47843;-55
2022/02/13 03:47:14;;;;;;;;;24.75;24.75;;;;;6.96;49.04;101205.22;2072101;28;47369;-56
2022/02/13 03:48:14;;;;;;;;;27.50;23.00;;;;;6.97;49.00;101195.53;2063089;28;45636;-54
2022/02/13 03:49:15;;;;;;;;;26.25;24.25;;;;;6.97;49.51;101198.19;2063123;28;47073;-52
2022/02/13 03:50:15;;;;;;;;;20.25;20.25;;;;;6.98;49.22;101199.94;2072423;28;47825;-54
2022/02/13 03:51:16;;;;;;;;;25.50;24.75;;;;;6.98;49.52;101198.19;2072483;28;47805;-53
2022/02/13 03:52:16;;;;;;;;;26.75;24.25;;;;;6.99;49.32;101189.41;2072437;28;47961;-55
2022/02/13 03:53:16;;;;;;;;;19.50;19.50;;;;;6.99;49.16;101192.06;2072289;28;46108;-52
2022/02/13 03:54:17;;;;;;;;;25.75;25.25;;;;;7.00;49.31;101187.66;2072160;28;47909;-52
2022/02/13 03:55:17;;;;;;;;;22.50;19.00;;;;;6.99;49.09;101176.22;2072023;28;47244;-54
2022/02/13 03:56:18;;;;;;;;;22.25;22.25;;;;;7.00;48.98;101183.25;2072220;28;47650;-54
2022/02/13 03:57:18;;;;;;;;;20.50;20.50;;;;;7.01;49.32;101182.38;2072423;28;47777;-55
2022/02/13 03:58:19;;;;;;;;;22.00;19.75;;;;;7.01;49.22;101182.38;2072262;28;47908;-52
2022/02/13 03:59:19;;;;;;;;;26.00;21.00;;;;;7.01;49.17;101178.84;2072487;28;48020;-54
2022/02/13 04:00:20;;;;;;;;;25.75;24.50;;;;;7.01;49.29;101178.84;2072561;28;47788;-52
2022/02/13 04:01:20;;;;;;;;;25.00;23.50;;;;;7.00;49.03;101180.63;2072482;28;47580;-53
2022/02/13 04:02:21;;;;;;;;;23.50;23.50;;;;;7.02;48.94;101186.78;2072554;28;47791;-53
2022/02/13 04:03:22;;;;;;;;;23.25;23.25;;;;;7.02;49.21;101184.13;2072378;28;47861;-54
2022/02/13 04:04:22;;;;;;;;;23.80;21.40;;;;;7.04;49.00;101184.13;2072135;28;47317;-55
2022/02/13 04:05:23;;;;;;;;;26.75;24.00;;;;;7.04;49.32;101177.09;2072310;28;47532;-55
2022/02/13 04:06:24;;;;;;;;;23.00;23.00;;;;;7.05;49.19;101185.88;2072222;28;47660;-52
2022/02/13 04:07:24;;;;;;;;;24.00;21.75;;;;;7.04;49.14;101182.38;2072262;28;47666;-55
2022/02/13 04:08:25;;;;;;;;;25.00;24.00;;;;;7.04;49.21;101185.00;2072222;28;47831;-53
2022/02/13 04:09:25;;;;;;;;;27.50;25.50;;;;;7.04;49.18;101181.50;2072389;28;47418;-53
2022/02/13 04:10:25;;;;;;;;;14.25;13.75;;;;;7.04;49.18;101182.38;2071961;28;47726;-52
2022/02/13 04:11:26;;;;;;;;;23.75;22.25;;;;;7.04;48.99;101185.00;2072011;28;47958;-52
2022/02/13 04:12:26;;;;;;;;;24.00;23.50;;;;;7.04;48.89;101181.50;2072318;28;47197;-54
2022/02/13 04:13:27;;;;;;;;;24.75;21.75;;;;;7.04;49.24;101185.00;2072308;28;47767;-54
2022/02/13 04:14:28;;;;;;;;;24.60;23.80;;;;;7.04;48.88;101181.50;2071914;28;48056;-55
2022/02/13 04:15:28;;;;;;;;;25.25;23.75;;;;;7.00;49.20;101182.38;2072170;28;47492;-52
2022/02/13 04:16:29;;;;;;;;;24.75;21.00;;;;;6.97;49.30;101183.22;2071909;28;48011;-53
2022/02/13 04:17:29;;;;;;;;;25.00;25.00;;;;;6.94;48.98;101177.97;2072270;28;47366;-53
2022/02/13 04:18:30;;;;;;;;;24.00;24.00;;;;;6.94;49.01;101179.72;2072512;28;47687;-55
2022/02/13 04:19:30;;;;;;;;;16.75;16.75;;;;;6.93;49.21;101176.19;2072161;28;48437;-54
2022/02/13 04:20:30;;;;;;;;;25.75;25.50;;;;;6.93;49.38;101172.69;2071248;28;47759;-52
2022/02/13 04:21:31;;;;;;;;;20.25;20.25;;;;;6.94;48.80;101174.44;2071858;28;47623;-53
2022/02/13 04:22:31;;;;;;;;;23.25;21.50;;;;;6.93;49.33;101180.59;2071952;28;47529;-53
2022/02/13 04:23:32;;;;;;;;;22.50;22.25;;;;;6.93;49.27;101173.56;2072279;28;48097;-52
2022/02/13 04:24:32;;;;;;;;;23.00;23.00;;;;;6.92;49.41;101170.94;2071670;28;47894;-54
2022/02/13 04:25:34;;;;;;;;;26.50;25.25;;;;;6.91;49.09;101171.81;2072435;28;47442;-53
2022/02/13 04:26:34;;;;;;;;;23.60;23.60;;;;;6.90;49.25;101176.22;2071684;28;47379;-54
2022/02/13 04:27:36;;;;;;;;;24.25;22.50;;;;;6.90;49.33;101175.31;2072288;28;47796;-55
2022/02/13 04:28:36;;;;;;;;;18.00;18.00;;;;;6.89;49.18;101170.94;2065014;28;47528;-52
2022/02/13 04:29:37;;;;;;;;;23.25;22.50;;;;;6.89;49.14;101170.94;2070270;28;47831;-53
2022/02/13 04:30:37;;;;;;;;;26.50;25.00;;;;;6.89;49.11;101169.16;2072027;28;47853;-54
2022/02/13 04:31:38;;;;;;;;;21.75;20.50;;;;;6.87;48.99;101165.66;2072380;28;47465;-52
2022/02/13 04:32:38;;;;;;;;;24.50;21.00;;;;;6.88;48.94;101164.78;2072382;28;47657;-55
2022/02/13 04:33:39;;;;;;;;;17.50;17.50;;;;;6.89;49.46;101165.66;2072155;28;47836;-50
2022/02/13 04:34:41;;;;;;;;;24.75;24.00;;;;;6.90;49.32;101156.84;2071972;28;48210;-52
2022/02/13 04:35:42;;;;;;;;;21.40;21.20;;;;;6.89;49.51;101158.63;2070659;28;47204;-54
2022/02/13 04:36:42;;;;;;;;;23.50;22.00;;;;;6.90;49.51;101162.13;2062914;28;48633;-51
2022/02/13 04:37:42;;;;;;;;;25.00;25.00;;;;;6.90;49.05;101156.84;2071329;28;47269;-54
2022/02/13 04:38:43;;;;;;;;;23.25;21.75;;;;;6.91;49.12;101158.63;2072132;28;47481;-54